sensor_id;sensor_type;location;lat;lon;timestamp;temperature;humidity
21772;DHT22;11047;47.904;8.110;2022-07-06T00:01:54;11.90;99.90
21772;DHT22;11047;47.904;8.110;2022-07-06T00:04:21;11.70;99.90
21772;DHT22;11047;47.904;8.110;2022-07-06T00:06:48;11.70;99.90
21772;DHT22;11047;47.904;8.110;2022-07-06T00:09:17;11.70;99.90
21772;DHT22;11047;47.904;8.110;2022-07-06T00:11:44;11.70;99.90
21772;DHT22;11047;47.904;8.110;2022-07-06T00:14:11;11.80;99.90
21772;DHT22;11047;47.904;8.110;2022-07-06T00:16:38;11.90;99.90
21772;DHT22;11047;47.904;8.110;2022-07-06T00:19:04;11.90;99.90
21772;DHT22;11047;47.904;8.110;2022-07-06T00:21:31;11.80;99.90
21772;DHT22;11047;47.904;8.110;2022-07-06T00:23:58;11.80;99.90
21772;DHT22;11047;47.904;8.110;2022-07-06T00:26:28;11.70;99.90
21772;DHT22;11047;47.904;8.110;2022-07-06T00:28:55;11.60;99.90
21772;DHT22;11047;47.904;8.110;2022-07-06T00:31:22;11.50;99.90
21772;DHT22;11047;47.904;8.110;2022-07-06T00:33:48;11.50;99.90
21772;DHT22;11047;47.904;8.110;2022-07-06T00:36:15;11.40;99.90
21772;DHT22;11047;47.904;8.110;2022-07-06T00:38:42;11.50;99.90
21772;DHT22;11047;47.904;8.110;2022-07-06T00:41:09;11.60;99.90
21772;DHT22;11047;47.904;8.110;2022-07-06T00:43:54;11.60;99.90
21772;DHT22;11047;47.904;8.110;2022-07-06T00:46:25;11.60;99.90
21772;DHT22;11047;47.904;8.110;2022-07-06T00:48:53;11.60;99.90
21772;DHT22;11047;47.904;8.110;2022-07-06T00:51:22;11.40;99.90
21772;DHT22;11047;47.904;8.110;2022-07-06T00:53:52;11.30;99.90
21772;DHT22;11047;47.904;8.110;2022-07-06T00:56:20;11.40;99.90
21772;DHT22;11047;47.904;8.110;2022-07-06T00:58:47;11.30;99.90
21772;DHT22;11047;47.904;8.110;2022-07-06T01:01:15;11.30;99.90
21772;DHT22;11047;47.904;8.110;2022-07-06T01:03:43;11.30;99.90
21772;DHT22;11047;47.904;8.110;2022-07-06T01:06:10;11.20;99.90
21772;DHT22;11047;47.904;8.110;2022-07-06T01:08:38;11.20;99.90
21772;DHT22;11047;47.904;8.110;2022-07-06T01:11:05;11.20;99.90
21772;DHT22;11047;47.904;8.110;2022-07-06T01:13:33;11.20;99.90
21772;DHT22;11047;47.904;8.110;2022-07-06T01:16:00;11.00;99.90
21772;DHT22;11047;47.904;8.110;2022-07-06T01:18:28;11.00;99.90
21772;DHT22;11047;47.904;8.110;2022-07-06T01:21:14;11.10;99.90
21772;DHT22;11047;47.904;8.110;2022-07-06T01:23:44;11.00;99.90
21772;DHT22;11047;47.904;8.110;2022-07-06T01:26:13;11.00;99.90
21772;DHT22;11047;47.904;8.110;2022-07-06T01:28:41;11.00;99.90
21772;DHT22;11047;47.904;8.110;2022-07-06T01:31:14;11.00;99.90
21772;DHT22;11047;47.904;8.110;2022-07-06T01:33:42;11.10;99.90
21772;DHT22;11047;47.904;8.110;2022-07-06T01:36:10;11.00;99.90
21772;DHT22;11047;47.904;8.110;2022-07-06T01:38:47;10.90;99.90
21772;DHT22;11047;47.904;8.110;2022-07-06T01:41:15;10.90;99.90
21772;DHT22;11047;47.904;8.110;2022-07-06T01:43:42;10.90;99.90
21772;DHT22;11047;47.904;8.110;2022-07-06T01:46:09;10.80;99.90
21772;DHT22;11047;47.904;8.110;2022-07-06T01:48:36;10.80;99.90
21772;DHT22;11047;47.904;8.110;2022-07-06T01:51:04;10.70;99.90
21772;DHT22;11047;47.904;8.110;2022-07-06T01:53:31;10.70;99.90
21772;DHT22;11047;47.904;8.110;2022-07-06T01:56:00;10.70;99.90
21772;DHT22;11047;47.904;8.110;2022-07-06T01:58:27;10.50;99.90
21772;DHT22;11047;47.904;8.110;2022-07-06T02:00:53;10.60;99.90
21772;DHT22;11047;47.904;8.110;2022-07-06T02:03:21;10.50;99.90
21772;DHT22;11047;47.904;8.110;2022-07-06T02:05:48;10.50;99.90
21772;DHT22;11047;47.904;8.110;2022-07-06T02:08:15;10.40;99.90
21772;DHT22;11047;47.904;8.110;2022-07-06T02:10:42;10.30;99.90
21772;DHT22;11047;47.904;8.110;2022-07-06T02:13:10;10.30;99.90
21772;DHT22;11047;47.904;8.110;2022-07-06T02:15:37;10.30;99.90
21772;DHT22;11047;47.904;8.110;2022-07-06T02:18:04;10.30;99.90
21772;DHT22;11047;47.904;8.110;2022-07-06T02:20:30;10.40;99.90
21772;DHT22;11047;47.904;8.110;2022-07-06T02:22:57;10.40;99.90
21772;DHT22;11047;47.904;8.110;2022-07-06T02:25:24;10.30;99.90
21772;DHT22;11047;47.904;8.110;2022-07-06T02:27:51;10.20;99.90
21772;DHT22;11047;47.904;8.110;2022-07-06T02:30:20;10.30;99.90
21772;DHT22;11047;47.904;8.110;2022-07-06T02:32:47;10.30;99.90
21772;DHT22;11047;47.904;8.110;2022-07-06T02:35:14;10.30;99.90
21772;DHT22;11047;47.904;8.110;2022-07-06T02:37:41;10.30;99.90
21772;DHT22;11047;47.904;8.110;2022-07-06T02:40:09;10.20;99.90
21772;DHT22;11047;47.904;8.110;2022-07-06T02:42:36;10.20;99.90
21772;DHT22;11047;47.904;8.110;2022-07-06T02:45:04;10.20;99.90
21772;DHT22;11047;47.904;8.110;2022-07-06T02:47:32;10.10;99.90
21772;DHT22;11047;47.904;8.110;2022-07-06T02:49:59;10.00;99.90
21772;DHT22;11047;47.904;8.110;2022-07-06T02:52:26;10.20;99.90
21772;DHT22;11047;47.904;8.110;2022-07-06T02:54:53;10.00;99.90
21772;DHT22;11047;47.904;8.110;2022-07-06T02:57:20;10.00;99.90
21772;DHT22;11047;47.904;8.110;2022-07-06T02:59:47;10.00;99.90
21772;DHT22;11047;47.904;8.110;2022-07-06T03:02:15;9.90;99.90
21772;DHT22;11047;47.904;8.110;2022-07-06T03:04:44;9.90;99.90
21772;DHT22;11047;47.904;8.110;2022-07-06T03:07:11;9.90;99.90
21772;DHT22;11047;47.904;8.110;2022-07-06T03:09:38;9.90;99.90
21772;DHT22;11047;47.904;8.110;2022-07-06T03:12:05;9.90;99.90
21772;DHT22;11047;47.904;8.110;2022-07-06T03:14:32;9.80;99.90
21772;DHT22;11047;47.904;8.110;2022-07-06T03:16:59;9.80;99.90
21772;DHT22;11047;47.904;8.110;2022-07-06T03:19:26;9.80;99.90
21772;DHT22;11047;47.904;8.110;2022-07-06T03:21:54;9.80;99.90
21772;DHT22;11047;47.904;8.110;2022-07-06T03:24:21;9.80;99.90
21772;DHT22;11047;47.904;8.110;2022-07-06T03:26:48;9.80;99.90
21772;DHT22;11047;47.904;8.110;2022-07-06T03:29:15;9.70;99.90
21772;DHT22;11047;47.904;8.110;2022-07-06T03:31:42;9.70;99.90
21772;DHT22;11047;47.904;8.110;2022-07-06T03:34:10;9.70;99.90
21772;DHT22;11047;47.904;8.110;2022-07-06T03:36:37;9.70;99.90
21772;DHT22;11047;47.904;8.110;2022-07-06T03:39:06;9.80;99.90
21772;DHT22;11047;47.904;8.110;2022-07-06T03:41:33;9.70;99.90
21772;DHT22;11047;47.904;8.110;2022-07-06T03:44:00;9.70;99.90
21772;DHT22;11047;47.904;8.110;2022-07-06T03:46:28;9.70;99.90
21772;DHT22;11047;47.904;8.110;2022-07-06T03:48:55;9.70;99.90
21772;DHT22;11047;47.904;8.110;2022-07-06T03:51:21;9.80;99.90
21772;DHT22;11047;47.904;8.110;2022-07-06T03:53:48;9.70;99.90
21772;DHT22;11047;47.904;8.110;2022-07-06T03:56:17;9.70;99.90
21772;DHT22;11047;47.904;8.110;2022-07-06T03:58:56;9.80;99.90
21772;DHT22;11047;47.904;8.110;2022-07-06T04:01:23;9.70;99.90
21772;DHT22;11047;47.904;8.110;2022-07-06T04:03:50;9.70;99.90
21772;DHT22;11047;47.904;8.110;2022-07-06T04:06:17;9.70;99.90
21772;DHT22;11047;47.904;8.110;2022-07-06T04:08:44;9.70;99.90
21772;DHT22;11047;47.904;8.110;2022-07-06T04:11:11;9.70;99.90
21772;DHT22;11047;47.904;8.110;2022-07-06T04:13:40;9.80;99.90
21772;DHT22;11047;47.904;8.110;2022-07-06T04:16:07;9.90;99.90
21772;DHT22;11047;47.904;8.110;2022-07-06T04:18:34;9.90;99.90
21772;DHT22;11047;47.904;8.110;2022-07-06T04:21:01;9.80;99.90
21772;DHT22;11047;47.904;8.110;2022-07-06T04:23:28;9.70;99.90
21772;DHT22;11047;47.904;8.110;2022-07-06T04:25:55;9.80;99.90
21772;DHT22;11047;47.904;8.110;2022-07-06T04:28:23;9.80;99.90
21772;DHT22;11047;47.904;8.110;2022-07-06T04:30:51;9.60;99.90
21772;DHT22;11047;47.904;8.110;2022-07-06T04:33:18;9.70;99.90
21772;DHT22;11047;47.904;8.110;2022-07-06T04:35:45;9.80;99.90
21772;DHT22;11047;47.904;8.110;2022-07-06T04:38:12;10.00;99.90
21772;DHT22;11047;47.904;8.110;2022-07-06T04:40:38;10.00;99.90
21772;DHT22;11047;47.904;8.110;2022-07-06T04:43:06;10.10;99.90
21772;DHT22;11047;47.904;8.110;2022-07-06T04:45:33;10.10;99.90
21772;DHT22;11047;47.904;8.110;2022-07-06T04:48:02;10.20;99.90
21772;DHT22;11047;47.904;8.110;2022-07-06T04:50:29;10.20;99.90
21772;DHT22;11047;47.904;8.110;2022-07-06T04:52:57;10.30;99.90
21772;DHT22;11047;47.904;8.110;2022-07-06T04:55:24;10.30;99.90
21772;DHT22;11047;47.904;8.110;2022-07-06T04:57:51;10.20;99.90
21772;DHT22;11047;47.904;8.110;2022-07-06T05:00:18;10.40;99.90
21772;DHT22;11047;47.904;8.110;2022-07-06T05:02:45;10.40;99.90
21772;DHT22;11047;47.904;8.110;2022-07-06T05:05:14;10.50;99.90
21772;DHT22;11047;47.904;8.110;2022-07-06T05:07:41;10.70;99.90
21772;DHT22;11047;47.904;8.110;2022-07-06T05:10:09;10.80;99.90
21772;DHT22;11047;47.904;8.110;2022-07-06T05:12:37;11.00;99.90
21772;DHT22;11047;47.904;8.110;2022-07-06T05:15:04;11.10;99.90
21772;DHT22;11047;47.904;8.110;2022-07-06T05:17:31;11.20;99.90
21772;DHT22;11047;47.904;8.110;2022-07-06T05:19:58;11.30;99.90
21772;DHT22;11047;47.904;8.110;2022-07-06T05:22:26;11.40;99.90
21772;DHT22;11047;47.904;8.110;2022-07-06T05:24:53;11.50;99.90
21772;DHT22;11047;47.904;8.110;2022-07-06T05:27:20;11.60;99.90
21772;DHT22;11047;47.904;8.110;2022-07-06T05:29:47;11.70;99.90
21772;DHT22;11047;47.904;8.110;2022-07-06T05:32:14;11.80;99.90
21772;DHT22;11047;47.904;8.110;2022-07-06T05:34:41;11.80;99.90
21772;DHT22;11047;47.904;8.110;2022-07-06T05:37:08;11.90;99.90
21772;DHT22;11047;47.904;8.110;2022-07-06T05:39:36;12.00;99.90
21772;DHT22;11047;47.904;8.110;2022-07-06T05:42:04;12.10;99.90
21772;DHT22;11047;47.904;8.110;2022-07-06T05:44:31;12.20;99.90
21772;DHT22;11047;47.904;8.110;2022-07-06T05:46:58;12.30;99.90
21772;DHT22;11047;47.904;8.110;2022-07-06T05:49:39;12.40;99.90
21772;DHT22;11047;47.904;8.110;2022-07-06T05:52:23;12.40;99.90
21772;DHT22;11047;47.904;8.110;2022-07-06T05:54:51;12.50;99.90
21772;DHT22;11047;47.904;8.110;2022-07-06T05:57:18;12.60;99.90
21772;DHT22;11047;47.904;8.110;2022-07-06T05:59:45;12.70;99.90
21772;DHT22;11047;47.904;8.110;2022-07-06T06:02:12;12.70;99.90
21772;DHT22;11047;47.904;8.110;2022-07-06T06:04:39;12.80;99.90
21772;DHT22;11047;47.904;8.110;2022-07-06T06:07:06;12.90;99.90
21772;DHT22;11047;47.904;8.110;2022-07-06T06:09:33;12.90;99.90
21772;DHT22;11047;47.904;8.110;2022-07-06T06:12:02;13.00;99.90
21772;DHT22;11047;47.904;8.110;2022-07-06T06:14:29;13.10;99.90
21772;DHT22;11047;47.904;8.110;2022-07-06T06:16:56;13.20;99.90
21772;DHT22;11047;47.904;8.110;2022-07-06T06:19:23;13.30;99.90
21772;DHT22;11047;47.904;8.110;2022-07-06T06:21:50;13.30;99.90
21772;DHT22;11047;47.904;8.110;2022-07-06T06:24:17;13.40;99.90
21772;DHT22;11047;47.904;8.110;2022-07-06T06:26:52;13.50;99.90
21772;DHT22;11047;47.904;8.110;2022-07-06T06:32:47;13.80;99.90
21772;DHT22;11047;47.904;8.110;2022-07-06T06:35:28;13.90;99.90
21772;DHT22;11047;47.904;8.110;2022-07-06T06:38:09;14.00;99.90
21772;DHT22;11047;47.904;8.110;2022-07-06T06:40:49;14.10;99.90
21772;DHT22;11047;47.904;8.110;2022-07-06T06:43:30;14.20;99.90
21772;DHT22;11047;47.904;8.110;2022-07-06T06:46:11;14.30;99.90
21772;DHT22;11047;47.904;8.110;2022-07-06T06:58:43;15.20;99.90
21772;DHT22;11047;47.904;8.110;2022-07-06T07:01:24;15.40;99.90
21772;DHT22;11047;47.904;8.110;2022-07-06T07:03:56;15.60;99.90
21772;DHT22;11047;47.904;8.110;2022-07-06T07:06:23;15.80;99.90
21772;DHT22;11047;47.904;8.110;2022-07-06T07:08:49;16.10;99.90
21772;DHT22;11047;47.904;8.110;2022-07-06T07:11:17;16.40;99.90
21772;DHT22;11047;47.904;8.110;2022-07-06T07:13:45;16.60;99.90
21772;DHT22;11047;47.904;8.110;2022-07-06T07:16:12;16.90;99.90
21772;DHT22;11047;47.904;8.110;2022-07-06T07:18:39;17.10;99.90
21772;DHT22;11047;47.904;8.110;2022-07-06T07:21:06;17.30;99.90
21772;DHT22;11047;47.904;8.110;2022-07-06T07:23:47;17.40;99.90
21772;DHT22;11047;47.904;8.110;2022-07-06T07:26:27;17.60;99.90
21772;DHT22;11047;47.904;8.110;2022-07-06T07:41:52;19.00;99.90
21772;DHT22;11047;47.904;8.110;2022-07-06T07:44:19;19.20;99.90
21772;DHT22;11047;47.904;8.110;2022-07-06T07:46:46;19.40;99.90
21772;DHT22;11047;47.904;8.110;2022-07-06T07:49:13;19.60;99.90
21772;DHT22;11047;47.904;8.110;2022-07-06T07:51:40;19.80;99.90
21772;DHT22;11047;47.904;8.110;2022-07-06T07:54:07;19.90;99.90
21772;DHT22;11047;47.904;8.110;2022-07-06T07:56:34;19.60;99.90
21772;DHT22;11047;47.904;8.110;2022-07-06T07:59:02;19.90;99.90
21772;DHT22;11047;47.904;8.110;2022-07-06T08:01:29;19.90;99.90
21772;DHT22;11047;47.904;8.110;2022-07-06T08:03:56;20.20;99.90
21772;DHT22;11047;47.904;8.110;2022-07-06T08:06:23;20.50;99.90
21772;DHT22;11047;47.904;8.110;2022-07-06T08:08:50;20.70;99.90
21772;DHT22;11047;47.904;8.110;2022-07-06T08:11:17;20.90;99.90
21772;DHT22;11047;47.904;8.110;2022-07-06T08:13:44;21.10;99.90
21772;DHT22;11047;47.904;8.110;2022-07-06T08:16:15;21.00;99.90
21772;DHT22;11047;47.904;8.110;2022-07-06T08:18:42;21.00;99.90
21772;DHT22;11047;47.904;8.110;2022-07-06T08:21:09;21.10;99.90
21772;DHT22;11047;47.904;8.110;2022-07-06T08:23:44;20.70;99.90
21772;DHT22;11047;47.904;8.110;2022-07-06T08:26:11;21.00;99.90
21772;DHT22;11047;47.904;8.110;2022-07-06T08:28:38;21.00;99.90
21772;DHT22;11047;47.904;8.110;2022-07-06T08:31:05;20.60;99.90
21772;DHT22;11047;47.904;8.110;2022-07-06T10:12:49;24.00;99.90
21772;DHT22;11047;47.904;8.110;2022-07-06T10:15:30;23.70;99.90
21772;DHT22;11047;47.904;8.110;2022-07-06T10:18:11;23.80;99.90
21772;DHT22;11047;47.904;8.110;2022-07-06T10:20:52;23.80;99.90
21772;DHT22;11047;47.904;8.110;2022-07-06T10:23:20;24.00;99.90
21772;DHT22;11047;47.904;8.110;2022-07-06T10:25:48;23.80;99.90
21772;DHT22;11047;47.904;8.110;2022-07-06T10:28:18;23.60;99.90
21772;DHT22;11047;47.904;8.110;2022-07-06T10:30:47;23.80;99.90
21772;DHT22;11047;47.904;8.110;2022-07-06T10:33:15;23.70;99.90
21772;DHT22;11047;47.904;8.110;2022-07-06T10:35:43;23.80;99.90
21772;DHT22;11047;47.904;8.110;2022-07-06T10:38:11;23.50;99.90
21772;DHT22;11047;47.904;8.110;2022-07-06T10:40:39;23.90;99.90
21772;DHT22;11047;47.904;8.110;2022-07-06T10:43:31;24.10;99.90
21772;DHT22;11047;47.904;8.110;2022-07-06T10:45:58;24.00;99.90
21772;DHT22;11047;47.904;8.110;2022-07-06T10:48:34;24.10;99.90
21772;DHT22;11047;47.904;8.110;2022-07-06T10:51:01;24.10;99.90
21772;DHT22;11047;47.904;8.110;2022-07-06T10:53:32;24.30;99.90
21772;DHT22;11047;47.904;8.110;2022-07-06T10:56:02;24.30;99.90
21772;DHT22;11047;47.904;8.110;2022-07-06T10:58:50;24.10;99.90
21772;DHT22;11047;47.904;8.110;2022-07-06T11:01:19;23.30;99.90
21772;DHT22;11047;47.904;8.110;2022-07-06T11:03:49;23.80;99.90
21772;DHT22;11047;47.904;8.110;2022-07-06T11:06:17;24.10;99.90
21772;DHT22;11047;47.904;8.110;2022-07-06T11:08:56;23.90;99.90
21772;DHT22;11047;47.904;8.110;2022-07-06T11:11:25;23.80;99.90
21772;DHT22;11047;47.904;8.110;2022-07-06T11:14:05;23.80;99.90
21772;DHT22;11047;47.904;8.110;2022-07-06T11:16:33;23.80;99.90
21772;DHT22;11047;47.904;8.110;2022-07-06T11:19:07;24.20;99.90
21772;DHT22;11047;47.904;8.110;2022-07-06T11:21:44;24.00;99.90
21772;DHT22;11047;47.904;8.110;2022-07-06T11:24:14;24.00;99.90
21772;DHT22;11047;47.904;8.110;2022-07-06T11:26:43;24.10;99.90
21772;DHT22;11047;47.904;8.110;2022-07-06T11:29:14;23.80;99.90
21772;DHT22;11047;47.904;8.110;2022-07-06T11:31:42;23.70;99.90
21772;DHT22;11047;47.904;8.110;2022-07-06T11:34:10;23.80;99.90
21772;DHT22;11047;47.904;8.110;2022-07-06T11:36:40;23.90;99.90
21772;DHT22;11047;47.904;8.110;2022-07-06T11:39:07;23.90;99.90
21772;DHT22;11047;47.904;8.110;2022-07-06T11:41:36;23.80;99.90
21772;DHT22;11047;47.904;8.110;2022-07-06T11:44:04;23.70;99.90
21772;DHT22;11047;47.904;8.110;2022-07-06T11:46:36;23.80;99.90
21772;DHT22;11047;47.904;8.110;2022-07-06T11:49:08;23.80;99.90
21772;DHT22;11047;47.904;8.110;2022-07-06T11:51:36;24.10;99.90
21772;DHT22;11047;47.904;8.110;2022-07-06T11:54:09;23.80;99.90
21772;DHT22;11047;47.904;8.110;2022-07-06T11:56:37;23.90;99.90
21772;DHT22;11047;47.904;8.110;2022-07-06T11:59:04;23.70;99.90
21772;DHT22;11047;47.904;8.110;2022-07-06T12:01:32;23.90;99.90
21772;DHT22;11047;47.904;8.110;2022-07-06T12:04:02;23.60;99.90
21772;DHT22;11047;47.904;8.110;2022-07-06T12:06:30;23.80;99.90
21772;DHT22;11047;47.904;8.110;2022-07-06T12:08:58;23.80;99.90
21772;DHT22;11047;47.904;8.110;2022-07-06T12:11:28;23.50;99.90
21772;DHT22;11047;47.904;8.110;2022-07-06T12:13:57;23.40;99.90
21772;DHT22;11047;47.904;8.110;2022-07-06T12:16:30;23.70;99.90
21772;DHT22;11047;47.904;8.110;2022-07-06T12:18:58;23.70;99.90
21772;DHT22;11047;47.904;8.110;2022-07-06T12:21:25;23.90;99.90
21772;DHT22;11047;47.904;8.110;2022-07-06T12:23:54;24.10;99.90
21772;DHT22;11047;47.904;8.110;2022-07-06T12:26:23;24.50;99.90
21772;DHT22;11047;47.904;8.110;2022-07-06T12:29:01;24.60;99.90
21772;DHT22;11047;47.904;8.110;2022-07-06T12:31:34;24.20;99.90
21772;DHT22;11047;47.904;8.110;2022-07-06T12:34:03;23.70;99.90
21772;DHT22;11047;47.904;8.110;2022-07-06T12:36:30;23.90;99.90
21772;DHT22;11047;47.904;8.110;2022-07-06T12:38:57;24.20;99.90
21772;DHT22;11047;47.904;8.110;2022-07-06T12:41:31;24.00;99.90
21772;DHT22;11047;47.904;8.110;2022-07-06T12:44:04;23.80;99.90
21772;DHT22;11047;47.904;8.110;2022-07-06T12:46:33;23.90;99.90
21772;DHT22;11047;47.904;8.110;2022-07-06T12:49:03;24.10;99.90
21772;DHT22;11047;47.904;8.110;2022-07-06T12:51:58;24.30;99.90
21772;DHT22;11047;47.904;8.110;2022-07-06T12:54:27;24.40;99.90
21772;DHT22;11047;47.904;8.110;2022-07-06T12:57:02;24.20;99.90
21772;DHT22;11047;47.904;8.110;2022-07-06T12:59:30;24.30;99.90
21772;DHT22;11047;47.904;8.110;2022-07-06T13:01:57;24.10;99.90
21772;DHT22;11047;47.904;8.110;2022-07-06T13:04:27;24.20;99.90
21772;DHT22;11047;47.904;8.110;2022-07-06T13:06:54;24.00;99.90
21772;DHT22;11047;47.904;8.110;2022-07-06T13:09:21;23.50;99.90
21772;DHT22;11047;47.904;8.110;2022-07-06T13:11:49;23.80;99.90
21772;DHT22;11047;47.904;8.110;2022-07-06T13:14:17;23.80;99.90
21772;DHT22;11047;47.904;8.110;2022-07-06T13:16:44;24.00;99.90
21772;DHT22;11047;47.904;8.110;2022-07-06T13:19:12;23.60;99.90
21772;DHT22;11047;47.904;8.110;2022-07-06T13:21:40;23.70;99.90
21772;DHT22;11047;47.904;8.110;2022-07-06T13:24:07;23.50;99.90
21772;DHT22;11047;47.904;8.110;2022-07-06T13:26:34;23.80;99.90
21772;DHT22;11047;47.904;8.110;2022-07-06T13:29:02;23.90;99.90
21772;DHT22;11047;47.904;8.110;2022-07-06T13:31:30;23.90;99.90
21772;DHT22;11047;47.904;8.110;2022-07-06T13:33:57;23.70;99.90
21772;DHT22;11047;47.904;8.110;2022-07-06T13:36:24;23.60;99.90
21772;DHT22;11047;47.904;8.110;2022-07-06T13:38:54;23.50;99.90
21772;DHT22;11047;47.904;8.110;2022-07-06T13:41:21;23.10;99.90
21772;DHT22;11047;47.904;8.110;2022-07-06T13:43:48;23.20;99.90
21772;DHT22;11047;47.904;8.110;2022-07-06T13:46:15;22.70;99.90
21772;DHT22;11047;47.904;8.110;2022-07-06T13:48:43;22.90;99.90
21772;DHT22;11047;47.904;8.110;2022-07-06T13:51:11;22.90;99.90
21772;DHT22;11047;47.904;8.110;2022-07-06T13:53:38;23.20;99.90
21772;DHT22;11047;47.904;8.110;2022-07-06T13:56:06;23.30;99.90
21772;DHT22;11047;47.904;8.110;2022-07-06T13:58:34;23.10;99.90
21772;DHT22;11047;47.904;8.110;2022-07-06T14:01:01;22.80;99.90
21772;DHT22;11047;47.904;8.110;2022-07-06T14:03:28;23.00;99.90
21772;DHT22;11047;47.904;8.110;2022-07-06T14:05:56;23.20;99.90
21772;DHT22;11047;47.904;8.110;2022-07-06T14:08:26;23.00;99.90
21772;DHT22;11047;47.904;8.110;2022-07-06T14:10:53;22.90;99.90
21772;DHT22;11047;47.904;8.110;2022-07-06T14:13:22;22.90;99.90
21772;DHT22;11047;47.904;8.110;2022-07-06T14:15:49;22.80;99.90
21772;DHT22;11047;47.904;8.110;2022-07-06T14:18:16;22.70;99.90
21772;DHT22;11047;47.904;8.110;2022-07-06T14:20:44;22.70;99.90
21772;DHT22;11047;47.904;8.110;2022-07-06T14:23:11;22.70;99.90
21772;DHT22;11047;47.904;8.110;2022-07-06T14:25:38;22.70;99.90
21772;DHT22;11047;47.904;8.110;2022-07-06T14:28:05;22.80;99.90
21772;DHT22;11047;47.904;8.110;2022-07-06T14:30:34;22.90;99.90
21772;DHT22;11047;47.904;8.110;2022-07-06T14:33:02;22.90;99.90
21772;DHT22;11047;47.904;8.110;2022-07-06T14:35:33;22.70;99.90
21772;DHT22;11047;47.904;8.110;2022-07-06T14:37:59;22.60;99.90
21772;DHT22;11047;47.904;8.110;2022-07-06T14:40:27;22.70;99.90
21772;DHT22;11047;47.904;8.110;2022-07-06T14:42:54;22.90;99.90
21772;DHT22;11047;47.904;8.110;2022-07-06T14:45:21;22.80;99.90
21772;DHT22;11047;47.904;8.110;2022-07-06T14:47:49;22.60;99.90
21772;DHT22;11047;47.904;8.110;2022-07-06T14:50:16;22.70;99.90
21772;DHT22;11047;47.904;8.110;2022-07-06T14:52:43;22.70;99.90
21772;DHT22;11047;47.904;8.110;2022-07-06T14:55:11;22.50;99.90
21772;DHT22;11047;47.904;8.110;2022-07-06T14:57:38;22.30;99.90
21772;DHT22;11047;47.904;8.110;2022-07-06T15:00:06;22.40;99.90
21772;DHT22;11047;47.904;8.110;2022-07-06T15:02:33;22.60;99.90
21772;DHT22;11047;47.904;8.110;2022-07-06T15:05:02;22.70;99.90
21772;DHT22;11047;47.904;8.110;2022-07-06T15:07:29;22.50;99.90
21772;DHT22;11047;47.904;8.110;2022-07-06T15:09:56;22.50;99.90
21772;DHT22;11047;47.904;8.110;2022-07-06T15:12:23;22.30;99.90
21772;DHT22;11047;47.904;8.110;2022-07-06T15:14:50;22.30;99.90
21772;DHT22;11047;47.904;8.110;2022-07-06T15:17:25;22.20;99.90
21772;DHT22;11047;47.904;8.110;2022-07-06T15:20:03;22.00;99.90
21772;DHT22;11047;47.904;8.110;2022-07-06T15:22:30;21.90;99.90
21772;DHT22;11047;47.904;8.110;2022-07-06T15:24:58;22.20;99.90
21772;DHT22;11047;47.904;8.110;2022-07-06T15:27:25;22.20;99.90
21772;DHT22;11047;47.904;8.110;2022-07-06T15:29:52;22.20;99.90
21772;DHT22;11047;47.904;8.110;2022-07-06T15:32:19;21.90;99.90
21772;DHT22;11047;47.904;8.110;2022-07-06T15:34:47;21.60;99.90
21772;DHT22;11047;47.904;8.110;2022-07-06T15:37:15;21.80;99.90
21772;DHT22;11047;47.904;8.110;2022-07-06T15:39:42;21.90;99.90
21772;DHT22;11047;47.904;8.110;2022-07-06T15:42:09;21.80;99.90
21772;DHT22;11047;47.904;8.110;2022-07-06T15:44:36;22.00;99.90
21772;DHT22;11047;47.904;8.110;2022-07-06T15:47:07;21.70;99.90
21772;DHT22;11047;47.904;8.110;2022-07-06T15:49:34;21.70;99.90
21772;DHT22;11047;47.904;8.110;2022-07-06T15:52:01;21.60;99.90
21772;DHT22;11047;47.904;8.110;2022-07-06T15:54:29;21.40;99.90
21772;DHT22;11047;47.904;8.110;2022-07-06T15:56:56;21.50;99.90
21772;DHT22;11047;47.904;8.110;2022-07-06T15:59:23;21.60;99.90
21772;DHT22;11047;47.904;8.110;2022-07-06T16:01:50;21.50;99.90
21772;DHT22;11047;47.904;8.110;2022-07-06T16:04:17;21.30;99.90
21772;DHT22;11047;47.904;8.110;2022-07-06T16:06:44;21.10;99.90
21772;DHT22;11047;47.904;8.110;2022-07-06T16:09:11;20.90;99.90
21772;DHT22;11047;47.904;8.110;2022-07-06T16:11:39;20.90;99.90
21772;DHT22;11047;47.904;8.110;2022-07-06T16:14:06;20.70;99.90
21772;DHT22;11047;47.904;8.110;2022-07-06T16:16:34;20.60;99.90
21772;DHT22;11047;47.904;8.110;2022-07-06T16:19:02;20.40;99.90
21772;DHT22;11047;47.904;8.110;2022-07-06T16:21:29;20.30;99.90
21772;DHT22;11047;47.904;8.110;2022-07-06T16:23:56;20.30;99.90
21772;DHT22;11047;47.904;8.110;2022-07-06T16:26:23;20.20;99.90
21772;DHT22;11047;47.904;8.110;2022-07-06T16:28:51;20.00;99.90
21772;DHT22;11047;47.904;8.110;2022-07-06T16:31:18;20.10;99.90
21772;DHT22;11047;47.904;8.110;2022-07-06T16:33:45;19.90;99.90
21772;DHT22;11047;47.904;8.110;2022-07-06T16:36:12;19.90;99.90
21772;DHT22;11047;47.904;8.110;2022-07-06T16:38:41;20.10;99.90
21772;DHT22;11047;47.904;8.110;2022-07-06T16:41:08;20.00;99.90
21772;DHT22;11047;47.904;8.110;2022-07-06T16:43:35;20.00;99.90
21772;DHT22;11047;47.904;8.110;2022-07-06T16:46:04;20.00;99.90
21772;DHT22;11047;47.904;8.110;2022-07-06T16:48:30;20.00;99.90
21772;DHT22;11047;47.904;8.110;2022-07-06T16:50:57;20.10;99.90
21772;DHT22;11047;47.904;8.110;2022-07-06T16:53:25;20.00;99.90
21772;DHT22;11047;47.904;8.110;2022-07-06T16:55:52;20.00;99.90
21772;DHT22;11047;47.904;8.110;2022-07-06T16:58:19;19.80;99.90
21772;DHT22;11047;47.904;8.110;2022-07-06T17:00:46;19.90;99.90
21772;DHT22;11047;47.904;8.110;2022-07-06T17:03:14;19.70;99.90
21772;DHT22;11047;47.904;8.110;2022-07-06T17:05:41;19.80;99.90
21772;DHT22;11047;47.904;8.110;2022-07-06T17:08:08;19.70;99.90
21772;DHT22;11047;47.904;8.110;2022-07-06T17:10:35;19.60;99.90
21772;DHT22;11047;47.904;8.110;2022-07-06T17:13:03;19.60;99.90
21772;DHT22;11047;47.904;8.110;2022-07-06T17:15:29;19.60;99.90
21772;DHT22;11047;47.904;8.110;2022-07-06T17:17:56;19.70;99.90
21772;DHT22;11047;47.904;8.110;2022-07-06T17:20:25;19.60;99.90
21772;DHT22;11047;47.904;8.110;2022-07-06T17:22:52;19.50;99.90
21772;DHT22;11047;47.904;8.110;2022-07-06T17:25:22;19.40;99.90
21772;DHT22;11047;47.904;8.110;2022-07-06T17:27:49;19.40;99.90
21772;DHT22;11047;47.904;8.110;2022-07-06T17:30:16;19.40;99.90
21772;DHT22;11047;47.904;8.110;2022-07-06T17:32:42;19.40;99.90
21772;DHT22;11047;47.904;8.110;2022-07-06T17:35:09;19.30;99.90
21772;DHT22;11047;47.904;8.110;2022-07-06T17:37:38;19.20;99.90
21772;DHT22;11047;47.904;8.110;2022-07-06T17:40:05;19.20;99.90
21772;DHT22;11047;47.904;8.110;2022-07-06T17:42:33;19.30;99.90
21772;DHT22;11047;47.904;8.110;2022-07-06T17:44:59;19.10;99.90
21772;DHT22;11047;47.904;8.110;2022-07-06T17:47:26;19.10;99.90